Aeroporto :
LOGIN :

Iscrizione | Disclaimer

   EN    FR    IT 

 










Sommario :    VFR   VFR Marginale   IFR   IFR Intensivo   IFR Molto Intensivo
Visibilità : 
Base nubi : 
>= 8 km
>= 3000ft
5 / 8 km
1000 / 3000 ft
1500m / 5 km
500 / 1000 ft
800 / 1500m
200 / 500 ft
< 800m
< 200 ft
Simboli :   Temporali  Nebbia  Neve Forte  Precipitazioni Forti  Vento > 20 kt
SIGMETs :   Varie  Temporali  Ghiacco  Turbolenza  Onda orograficha  Ceneri Vulcaniche







- Altitudine del aeroporto : 197 ft
- Codice IATA : XOG
- Carte del aeroporto


LFMO - Orange

ULTIMO METAR :
  • 230930Z AUTO 36018KT 330V030 CAVOK 29/14 Q1013 BECMG 35015G25KT

METARs OBSOLETI :
  • 230900Z AUTO 36017KT CAVOK 28/14 Q1013 BECMG 35015G25KT
  • 230830Z AUTO 35017KT CAVOK 27/14 Q1013 BECMG 35015G25KT
  • 230800Z AUTO 36018KT CAVOK 26/13 Q1013 TEMPO 35020G35KT
  • 230730Z AUTO 35019G29KT 330V030 9000 NSC 25/13 Q1013 NOSIG
  • 230700Z AUTO 35020G31KT 9000 NSC 25/13 Q1013 NOSIG

TAF TAF LFMO
Valido dal 23 a 09 ore il 24 a 09 ore UTC


230800Z 2309/2409 35015G25KT CAVOK
BECMG 2323/2401 35012KT
BECMG 2402/2404 VRB02KT
Nessun NOTAM noto per questo aeroporto.



MetMap, La meteo Aeronautica in un colpo d'occhio ! - Copyright ORBIFLY Dicembre 2007 - Disclaimer

ORBIFLY MET'MAP TEAM :

Programmazione e sviluppo : Alexandra Zaïnal
Concezione e sviluppo : Baudouin d'Aumeries
Co-Programmazione e sviluppo : Marc-Olivier Méhu
Supporto tecnico e logistico : Manuel Goepfert
Aiuto per la traduzione : Arnaldo La Scala

Contatto : metmap@orbifly.com




FONTI E CREDITI :

   NOAA